Aérodrome :
LOGIN :

S'inscrire | Disclaimer

   EN    FR    IT 

 










Légende :    VFR   VFR Marginal   IFR   IFR Intensif   IFR Très Intensif
Visi : 
Plafond : 
>= 8 km
>= 3000ft
5 à 8 km
1000 à 3000 ft
1500m à 5 km
500 à 1000 ft
800 à 1500m
200 à 500 ft
< 800m
< 200 ft
Symboles :   Orages  Brouillard  Fortes neiges  Fortes précipitations  Vent > 20 kt
SIGMETs :   Divers  Orages  Givrage  Turbulence  Onde Orograph.  Cendres Volcan.







- Altitude de l'aérodrome : 1521 ft
- Code IATA : NCY
- Voir les cartes d'approche


LFLP - Annecy

DERNIER METAR :
  • 270130Z AUTO 05003KT 010V100 9999 -RA FEW010/// SCT072/// OVC096/// ///TCU 17/16 Q1012

METARs EXPIRÉS :
  • 270100Z AUTO 05004KT 010V090 7000 RA VCTS FEW015/// BKN066/// BKN086/// ///CB 17/16 Q1013
  • 270030Z AUTO 03004KT 350V080 9999 -RA FEW023/// OVC100/// ///CB 17/16 Q1013
  • 270000Z AUTO 07004KT 360V160 9000 RA FEW060/// OVC100/// ///CB 17/16 Q1013
  • 262330Z AUTO VRB02KT 5000 RA BR FEW050/// BKN066/// OVC084/// ///TCU 18/15 Q1014
  • 262300Z AUTO VRB02KT 9999 FEW066/// BKN078/// OVC090/// ///CB 18/15 Q1013

TAF TAF LFLP
Valide du 26 à 15h jusqu'au 27 à 15h UTC


261400Z 2615/2715 18005KT 9999 SCT070
TEMPO 2615/2623 4000 SHRA SCT050TCU BKN070
PROB40
TEMPO 2615/2622 VRB15G35KT 2000 TSRA SCT020 BKN035CB
PROB30
TEMPO 2618/2621 1400 TSGR BKN015 BKN035CB
Pas de NOTAMs connus pour ce terrain.



MET'MAP, la Météo Aéronautique d'un coup d'oeil ! - Copyright ORBIFLY Décembre 2007 - Disclaimer

ORBIFLY MET'MAP TEAM :

Programmation & Développement : Alexandra Zaïnal
Conception & Développement : Baudouin d'Aumeries
Co-Programmation & Développement : Marc-Olivier Méhu
Soutien technique & logistique : Manuel Goepfert

Contact : metmap@orbifly.com




SOURCES & CREDITS :

   NOAA